Latest Coastal Weather Observations for Mandurah

IDW60701

Issued at 12:42 am WST Wednesday 1 April 2015 (issued every 10 minutes, with the page automatically refreshed every 10 minutes)

About coastal observations | Map of coastal stations | Coastal observations for WA | Marine services | Other Formats
Station Details ID: 009977 Name: MANDURAH Lat: -32.52 Lon: 115.71 Height: 3.0 m
Data from the previous 72 hours. | See also: Recent months at Mandurah
Date/Time
WST
Temp

°C
Wind Pressure Rain
since 9am
mm
Weather Cloud Vis
km
Sea
Height
m
Swell
Dir
 
Speed
knots
Gust
knots
hPa Trend Height
m
Period
s
Dir
01/12:30am 16.6 SSE 11 17 1022.2 - 0.0 - - - - - - -
01/12:00am 17.0 SSE 11 15 1021.9 - 0.0 - - - - - - -
 
Date/Time
WST
Temp

°C
Wind Pressure Rain
since 9am
mm
Weather Cloud Vis
km
Sea
Height
m
Swell
Dir
 
Speed
knots
Gust
knots
hPa Trend Height
m
Period
s
Dir
31/11:30pm 17.4 S 12 17 1021.6 - 0.0 - - - - - - -
31/11:00pm 17.5 S 13 20 1021.5 - 0.0 - - - - - - -
31/10:30pm 17.9 S 13 21 1021.4 - 0.0 - - - - - - -
31/10:00pm 18.3 SSE 12 18 1021.3 - 0.0 - - - - - - -
31/09:30pm 18.7 S 13 20 1020.9 - 0.0 - - - - - - -
31/09:00pm 19.4 S 13 18 1020.4 - 0.0 - - - - - - -
31/08:30pm 19.8 S 13 18 1020.2 - 0.0 - - - - - - -
31/08:00pm 20.2 S 11 17 1019.8 - 0.0 - - - - - - -
31/07:30pm 20.5 S 12 18 1019.4 - 0.0 - - - - - - -
31/07:00pm 20.7 S 11 16 1018.8 - 0.0 - - - - - - -
31/06:30pm 21.3 SSW 8 12 1018.4 - 0.0 - - - - - - -
31/06:00pm 21.4 SSW 10 16 1018.3 - 0.0 - - - - - - -
31/05:30pm 22.1 SSW 9 16 1017.9 - 0.0 - - - - - - -
31/05:00pm 22.5 SSW 10 17 1017.6 - 0.0 - - - - - - -
31/04:30pm 22.2 SW 11 16 1017.3 - 0.0 - - - - - - -
31/04:00pm 22.4 SW 12 17 1017.1 - 0.0 - - - - - - -
31/03:30pm 23.1 SW 11 15 1017.0 - 0.0 - - - - - - -
31/03:00pm 24.0 SW 9 15 1016.9 - 0.0 - - - - - - -
31/02:30pm 24.3 SSW 8 13 1016.9 - 0.0 - - - - - - -
31/02:00pm 23.6 SSW 8 13 1017.1 - 0.0 - - - - - - -
31/01:30pm 22.5 SSW 11 15 1017.2 - 0.0 - - - - - - -
31/01:00pm 22.4 SSW 10 15 1017.3 - 0.0 - - - - - - -
31/12:30pm 23.5 WSW 12 16 1017.5 - 0.0 - - - - - - -
31/12:00pm 23.5 WSW 9 11 1017.7 - 0.0 - - - - - - -
31/11:30am 22.6 WSW 6 8 1018.0 - 0.0 - - - - - - -
31/11:00am 22.0 W 6 9 1018.1 - 0.0 - - - - - - -
31/10:30am 22.5 SE 5 7 1018.1 - 0.0 - - - - - - -
31/10:00am 21.3 SSE 3 6 1018.1 - 0.0 - - - - - - -
31/09:30am 20.4 SSE 3 5 1018.0 - 0.0 - - - - - - -
31/09:00am 19.8 S 4 6 1018.0 - 0.0 - - - - - - -
31/08:30am 18.8 SSE 4 7 1017.8 - 0.0 - - - - - - -
31/08:00am 18.2 SSE 5 7 1017.3 - 0.0 - - - - - - -
31/07:30am 17.9 SSE 5 7 1017.0 - 0.0 - - - - - - -
31/07:00am 17.5 SSE 4 5 1017.0 - 0.0 - - - - - - -
31/06:30am 17.3 SSE 3 5 1016.8 - 0.0 - - - - - - -
31/06:00am 17.0 SSE 3 5 1016.7 - 0.0 - - - - - - -
31/05:30am 16.7 ESE 4 5 1016.5 - 0.0 - - - - - - -
31/05:00am 17.5 ESE 3 4 1016.3 - 0.0 - - - - - - -
31/04:30am 18.8 SSE 4 5 1016.1 - 0.0 - - - - - - -
31/04:00am 18.3 S 3 4 1016.0 - 0.0 - - - - - - -
31/03:30am 18.4 S 3 3 1015.8 - 0.0 - - - - - - -
31/03:00am 18.6 SSW 2 3 1015.9 - 0.0 - - - - - - -
31/02:30am 19.1 S 3 5 1016.0 - 0.0 - - - - - - -
31/02:00am 19.0 SSW 3 4 1016.1 - 0.0 - - - - - - -
31/01:30am 19.2 S 3 6 1016.2 - 0.0 - - - - - - -
31/01:00am 19.4 S 4 5 1016.3 - 0.0 - - - - - - -
31/12:30am 19.6 SSW 4 6 1016.4 - 0.0 - - - - - - -
31/12:00am 19.7 SSW 4 5 1016.7 - 0.0 - - - - - - -
 
Date/Time
WST
Temp

°C
Wind Pressure Rain
since 9am
mm
Weather Cloud Vis
km
Sea
Height
m
Swell
Dir
 
Speed
knots
Gust
knots
hPa Trend Height
m
Period
s
Dir
30/11:30pm 19.3 SW 3 4 1017.0 - 0.0 - - - - - - -
30/11:00pm 19.8 SSW 1 4 1017.3 - 0.0 - - - - - - -
30/10:30pm 20.1 SSW 1 2 1017.7 - 0.0 - - - - - - -
30/10:00pm 20.3 SSW 1 2 1017.9 - 0.0 - - - - - - -
30/09:30pm 20.3 SSW 2 3 1017.9 - 0.0 - - - - - - -
30/09:00pm 20.4 SSW 3 5 1017.8 - 0.0 - - - - - - -
30/08:30pm 20.4 SSW 3 6 1017.6 - 0.0 - - - - - - -
30/08:00pm 20.5 SW 4 7 1017.3 - 0.0 - - - - - - -
30/07:30pm 20.6 SSW 5 9 1016.8 - 0.0 - - - - - - -
30/07:00pm 20.8 SSW 7 11 1016.4 - 0.0 - - - - - - -
30/06:30pm 21.0 SSW 6 11 1016.2 - 0.0 - - - - - - -
30/06:00pm 21.4 SSW 6 12 1016.2 - 0.0 - - - - - - -
30/05:30pm 21.7 SSW 8 11 1015.9 - 0.0 - - - - - - -
30/05:00pm 22.0 SSW 7 12 1016.1 - 0.0 - - - - - - -
30/04:30pm 22.4 SW 6 9 1015.6 - 0.0 - - - - - - -
30/04:00pm 22.3 SW 7 11 1015.6 - 0.0 - - - - - - -
30/03:30pm 22.8 SW 10 13 1015.3 - 0.0 - - - - - - -
30/03:00pm 23.0 SW 9 11 1015.0 - 0.0 - - - - - - -
30/02:30pm 23.9 S 6 10 1014.8 - 0.0 - - - - - - -
30/02:00pm 23.7 SW 8 11 1014.9 - 0.0 - - - - - - -
30/01:30pm 23.9 SW 6 8 1014.7 - 0.0 - - - - - - -
30/01:00pm 23.4 SW 8 11 1014.9 - 0.0 - - - - - - -
30/12:30pm 24.3 WSW 8 11 1015.1 - 0.0 - - - - - - -
30/12:00pm 24.5 WSW 8 11 1015.3 - 0.0 - - - - - - -
30/11:30am 25.2 WSW 7 10 1015.5 - 0.0 - - - - - - -
30/11:00am 25.2 SW 5 8 1015.8 - 0.0 - - - - - - -
30/10:30am 24.5 WSW 4 6 1016.2 - 0.0 - - - - - - -
30/10:00am 23.1 SW 6 9 1016.5 - 0.0 - - - - - - -
30/09:30am 22.0 WSW 5 8 1016.2 - 0.0 - - - - - - -
30/09:00am 21.5 W 4 7 1016.2 - 0.0 - - - - - - -
30/08:30am 20.2 CALM 0 0 1016.2 - 0.0 - - - - - - -
30/08:00am 19.3 SSE 1 2 1015.8 - 0.0 - - - - - - -
30/07:30am 18.2 SE 3 5 1015.5 - 0.0 - - - - - - -
30/07:00am 18.1 SE 3 4 1015.6 - 0.0 - - - - - - -
30/06:30am 18.3 SSE 4 6 1015.7 - 0.0 - - - - - - -
30/06:00am 18.6 SSE 6 8 1015.6 - 0.0 - - - - - - -
30/05:30am 18.6 SSE 6 8 1015.3 - 0.0 - - - - - - -
30/05:00am 18.8 SSE 7 9 1015.1 - 0.0 - - - - - - -
30/04:30am 18.9 S 6 8 1015.1 - 0.0 - - - - - - -
30/04:00am 18.8 S 5 6 1015.2 - 0.0 - - - - - - -
30/03:30am 18.7 S 4 5 1015.2 - 0.0 - - - - - - -
30/03:00am 18.8 S 3 5 1015.3 - 0.0 - - - - - - -
30/02:30am 19.2 SSE 4 5 1015.6 - 0.0 - - - - - - -
30/02:00am 19.3 SSE 3 5 1015.8 - 0.0 - - - - - - -
30/01:30am 19.1 S 3 4 1016.1 - 0.0 - - - - - - -
30/01:00am 19.5 SSE 2 3 1016.5 - 0.0 - - - - - - -
30/12:30am 19.7 SSE 1 2 1016.6 - 0.0 - - - - - - -
30/12:00am 19.8 SSE 3 4 1016.8 - 0.0 - - - - - - -
 
Date/Time
WST
Temp

°C
Wind Pressure Rain
since 9am
mm
Weather Cloud Vis
km
Sea
Height
m
Swell
Dir
 
Speed
knots
Gust
knots
hPa Trend Height
m
Period
s
Dir
29/11:30pm 20.1 S 2 3 1016.9 - 0.0 - - - - - - -
29/11:00pm 20.8 SSE 4 5 1017.0 - 0.0 - - - - - - -
29/10:30pm 20.9 SSE 3 5 1017.2 - 0.0 - - - - - - -
29/10:00pm 21.1 SSE 4 5 1017.4 - 0.0 - - - - - - -
29/09:30pm 21.3 SSE 5 7 1017.7 - 0.0 - - - - - - -
29/09:00pm 21.5 SSE 6 7 1017.9 - 0.0 - - - - - - -
29/08:30pm 21.7 SSE 7 10 1017.7 - 0.0 - - - - - - -
29/08:00pm 22.0 SSE 6 10 1017.8 - 0.0 - - - - - - -
29/07:30pm 22.2 SSE 7 10 1017.7 - 0.0 - - - - - - -
29/07:00pm 22.5 SSE 6 8 1017.6 - 0.0 - - - - - - -
29/06:30pm 22.8 S 7 10 1017.5 - 0.0 - - - - - - -
29/06:00pm 23.1 SSW 7 12 1017.5 - 0.0 - - - - - - -
29/05:30pm 24.1 S 7 10 1017.3 - 0.0 - - - - - - -
29/05:00pm 24.8 S 6 9 1017.3 - 0.0 - - - - - - -
29/04:30pm 25.3 SSW 6 10 1017.2 - 0.0 - - - - - - -
29/04:00pm 24.4 SW 10 14 1017.2 - 0.0 - - - - - - -
29/03:30pm 24.0 SW 10 14 1017.2 - 0.0 - - - - - - -
29/03:00pm 24.7 WSW 11 15 1017.4 - 0.0 - - - - - - -
29/02:30pm 25.0 WSW 10 13 1017.7 - 0.0 - - - - - - -
29/02:00pm 25.6 WSW 9 11 1017.9 - 0.0 - - - - - - -
29/01:30pm 25.7 WSW 9 12 1018.1 - 0.0 - - - - - - -
29/01:00pm 24.8 WSW 9 13 1018.5 - 0.0 - - - - - - -
29/12:30pm 25.3 WSW 8 10 1018.9 - 0.0 - - - - - - -
29/12:00pm 25.0 WSW 7 9 1019.2 - 0.0 - - - - - - -
29/11:30am 25.1 WSW 5 7 1019.6 - 0.0 - - - - - - -
29/11:00am 24.3 WSW 5 7 1020.0 - 0.0 - - - - - - -
29/10:30am 23.4 WSW 4 7 1020.4 - 0.0 - - - - - - -
29/10:00am 22.3 WNW 4 5 1020.6 - 0.0 - - - - - - -
29/09:30am 21.0 WNW 3 3 1020.8 - 0.0 - - - - - - -
29/09:00am 20.2 SE 2 3 1020.8 - 0.0 - - - - - - -
29/08:30am 18.8 CALM 0 0 1020.7 - 0.0 - - - - - - -
29/08:00am 17.9 CALM 0 0 1020.7 - 0.0 - - - - - - -
29/07:30am 17.3 SE 2 4 1020.4 - 0.0 - - - - - - -
29/07:00am 16.3 SE 1 2 1020.1 - 0.0 - - - - - - -
29/06:30am 16.2 E 3 5 1019.8 - 0.0 - - - - - - -
29/06:00am 15.7 SSE 1 2 1019.6 - 0.0 - - - - - - -
29/05:30am 15.7 SE 2 3 1019.5 - 0.0 - - - - - - -
29/05:00am 16.1 SE 3 4 1019.4 - 0.0 - - - - - - -
29/04:30am 16.5 ESE 3 4 1019.4 - 0.0 - - - - - - -
29/04:00am 17.5 SE 4 5 1019.4 - 0.0 - - - - - - -
29/03:30am 17.8 SSE 4 6 1019.7 - 0.0 - - - - - - -
29/03:00am 17.9 SSE 5 7 1019.6 - 0.0 - - - - - - -
29/02:30am 18.4 SSE 6 9 1019.6 - 0.0 - - - - - - -
29/02:00am 18.4 SSE 5 9 1019.6 - 0.0 - - - - - - -
29/01:30am 18.5 SSE 7 11 1019.8 - 0.0 - - - - - - -
29/01:00am 18.5 SSE 6 9 1019.8 - 0.0 - - - - - - -

Other Formats:

Comma delimited format used in spreadsheet applications
http://www.bom.gov.au/fwo/IDW60701/IDW60701.94605.axf

JavaScript Object Notation format (JSON) in row-major order
http://www.bom.gov.au/fwo/IDW60701/IDW60701.94605.json